sensor_id;sensor_type;location;lat;lon;timestamp;P1;durP1;ratioP1;P2;durP2;ratioP2
42802;SDS011;28447;48.682;9.022;2023-05-19T04:00:13;13.23;;;4.80;;
42802;SDS011;28447;48.682;9.022;2023-05-19T04:02:40;9.47;;;4.87;;
42802;SDS011;28447;48.682;9.022;2023-05-19T04:05:06;6.97;;;4.93;;
42802;SDS011;28447;48.682;9.022;2023-05-19T04:07:32;6.67;;;4.17;;
42802;SDS011;28447;48.682;9.022;2023-05-19T04:09:58;7.70;;;4.63;;
42802;SDS011;28447;48.682;9.022;2023-05-19T04:12:23;9.70;;;4.40;;
42802;SDS011;28447;48.682;9.022;2023-05-19T04:14:49;7.83;;;5.30;;
42802;SDS011;28447;48.682;9.022;2023-05-19T04:17:15;7.30;;;4.80;;
42802;SDS011;28447;48.682;9.022;2023-05-19T04:19:40;7.30;;;5.10;;
42802;SDS011;28447;48.682;9.022;2023-05-19T04:22:06;6.93;;;4.43;;
42802;SDS011;28447;48.682;9.022;2023-05-19T04:24:32;7.13;;;4.73;;
42802;SDS011;28447;48.682;9.022;2023-05-19T04:26:58;7.23;;;5.53;;
42802;SDS011;28447;48.682;9.022;2023-05-19T04:29:26;8.90;;;4.80;;
42802;SDS011;28447;48.682;9.022;2023-05-19T04:31:56;11.43;;;5.20;;
42802;SDS011;28447;48.682;9.022;2023-05-19T04:34:22;10.20;;;5.83;;
42802;SDS011;28447;48.682;9.022;2023-05-19T04:36:47;9.90;;;5.23;;
42802;SDS011;28447;48.682;9.022;2023-05-19T04:39:13;9.43;;;5.47;;
42802;SDS011;28447;48.682;9.022;2023-05-19T04:41:39;8.03;;;5.33;;
42802;SDS011;28447;48.682;9.022;2023-05-19T04:44:05;10.17;;;4.93;;
42802;SDS011;28447;48.682;9.022;2023-05-19T04:46:33;9.47;;;5.30;;
42802;SDS011;28447;48.682;9.022;2023-05-19T04:48:59;12.30;;;4.63;;
42802;SDS011;28447;48.682;9.022;2023-05-19T04:51:25;10.63;;;5.43;;
42802;SDS011;28447;48.682;9.022;2023-05-19T04:53:52;10.60;;;5.20;;
42802;SDS011;28447;48.682;9.022;2023-05-19T04:56:19;9.83;;;5.30;;
42802;SDS011;28447;48.682;9.022;2023-05-19T04:58:44;9.00;;;5.10;;
42802;SDS011;28447;48.682;9.022;2023-05-19T05:01:10;9.00;;;5.17;;
42802;SDS011;28447;48.682;9.022;2023-05-19T05:03:37;13.13;;;5.67;;
42802;SDS011;28447;48.682;9.022;2023-05-19T05:06:03;6.43;;;4.80;;
42802;SDS011;28447;48.682;9.022;2023-05-19T05:08:30;8.20;;;5.63;;
42802;SDS011;28447;48.682;9.022;2023-05-19T05:10:56;6.00;;;4.93;;
42802;SDS011;28447;48.682;9.022;2023-05-19T05:13:22;8.03;;;5.30;;
42802;SDS011;28447;48.682;9.022;2023-05-19T05:15:48;8.67;;;4.93;;
42802;SDS011;28447;48.682;9.022;2023-05-19T05:18:16;9.97;;;5.60;;
42802;SDS011;28447;48.682;9.022;2023-05-19T05:20:42;9.60;;;5.03;;
42802;SDS011;28447;48.682;9.022;2023-05-19T05:23:12;6.50;;;4.83;;
42802;SDS011;28447;48.682;9.022;2023-05-19T05:25:41;7.17;;;5.97;;
42802;SDS011;28447;48.682;9.022;2023-05-19T05:28:07;11.40;;;5.47;;
42802;SDS011;28447;48.682;9.022;2023-05-19T05:30:33;9.03;;;4.93;;
42802;SDS011;28447;48.682;9.022;2023-05-19T05:32:59;9.50;;;5.77;;
42802;SDS011;28447;48.682;9.022;2023-05-19T05:35:26;9.77;;;5.47;;
42802;SDS011;28447;48.682;9.022;2023-05-19T05:37:52;15.60;;;5.70;;
42802;SDS011;28447;48.682;9.022;2023-05-19T05:40:17;8.97;;;5.67;;
42802;SDS011;28447;48.682;9.022;2023-05-19T05:42:43;10.90;;;5.50;;
42802;SDS011;28447;48.682;9.022;2023-05-19T05:45:09;10.57;;;5.23;;
42802;SDS011;28447;48.682;9.022;2023-05-19T05:47:35;9.17;;;5.93;;
42802;SDS011;28447;48.682;9.022;2023-05-19T05:50:02;13.80;;;5.90;;
42802;SDS011;28447;48.682;9.022;2023-05-19T05:52:29;11.63;;;5.40;;
42802;SDS011;28447;48.682;9.022;2023-05-19T05:54:56;9.97;;;4.97;;
42802;SDS011;28447;48.682;9.022;2023-05-19T05:57:22;8.47;;;5.33;;
42802;SDS011;28447;48.682;9.022;2023-05-19T05:59:47;8.20;;;5.40;;
42802;SDS011;28447;48.682;9.022;2023-05-19T06:02:14;14.60;;;5.13;;
42802;SDS011;28447;48.682;9.022;2023-05-19T06:04:43;12.03;;;6.27;;
42802;SDS011;28447;48.682;9.022;2023-05-19T06:07:09;9.70;;;5.40;;
42802;SDS011;28447;48.682;9.022;2023-05-19T06:09:34;7.93;;;5.10;;
42802;SDS011;28447;48.682;9.022;2023-05-19T06:12:00;10.47;;;5.43;;
42802;SDS011;28447;48.682;9.022;2023-05-19T06:14:26;8.87;;;5.30;;
42802;SDS011;28447;48.682;9.022;2023-05-19T06:16:51;10.60;;;5.77;;
42802;SDS011;28447;48.682;9.022;2023-05-19T06:19:18;10.53;;;5.50;;
42802;SDS011;28447;48.682;9.022;2023-05-19T06:21:44;20.73;;;5.57;;
42802;SDS011;28447;48.682;9.022;2023-05-19T06:24:10;9.67;;;5.17;;
42802;SDS011;28447;48.682;9.022;2023-05-19T06:26:35;8.67;;;5.30;;
42802;SDS011;28447;48.682;9.022;2023-05-19T06:29:01;9.53;;;4.60;;
42802;SDS011;28447;48.682;9.022;2023-05-19T06:31:27;8.37;;;5.60;;
42802;SDS011;28447;48.682;9.022;2023-05-19T06:33:53;8.97;;;6.10;;
42802;SDS011;28447;48.682;9.022;2023-05-19T06:36:19;9.00;;;5.33;;
42802;SDS011;28447;48.682;9.022;2023-05-19T06:38:45;9.70;;;4.73;;
42802;SDS011;28447;48.682;9.022;2023-05-19T06:41:11;8.30;;;5.37;;
42802;SDS011;28447;48.682;9.022;2023-05-19T06:43:37;7.20;;;5.77;;
42802;SDS011;28447;48.682;9.022;2023-05-19T06:46:02;9.63;;;5.70;;
42802;SDS011;28447;48.682;9.022;2023-05-19T06:48:29;9.83;;;6.20;;
42802;SDS011;28447;48.682;9.022;2023-05-19T06:50:54;7.03;;;5.00;;
42802;SDS011;28447;48.682;9.022;2023-05-19T06:53:20;10.00;;;5.60;;
42802;SDS011;28447;48.682;9.022;2023-05-19T06:55:46;14.83;;;5.10;;
42802;SDS011;28447;48.682;9.022;2023-05-19T06:58:14;6.83;;;4.60;;
42802;SDS011;28447;48.682;9.022;2023-05-19T07:00:40;11.60;;;5.87;;
42802;SDS011;28447;48.682;9.022;2023-05-19T07:03:06;9.63;;;5.87;;
42802;SDS011;28447;48.682;9.022;2023-05-19T07:05:31;9.47;;;5.43;;
42802;SDS011;28447;48.682;9.022;2023-05-19T07:07:57;13.60;;;5.83;;
42802;SDS011;28447;48.682;9.022;2023-05-19T07:10:22;8.97;;;5.30;;
42802;SDS011;28447;48.682;9.022;2023-05-19T07:12:48;14.73;;;5.50;;
42802;SDS011;28447;48.682;9.022;2023-05-19T07:15:14;8.93;;;5.43;;
42802;SDS011;28447;48.682;9.022;2023-05-19T07:17:39;7.80;;;5.20;;
42802;SDS011;28447;48.682;9.022;2023-05-19T07:20:05;10.63;;;6.00;;
42802;SDS011;28447;48.682;9.022;2023-05-19T07:22:34;10.20;;;5.17;;
42802;SDS011;28447;48.682;9.022;2023-05-19T07:25:00;10.30;;;5.40;;
42802;SDS011;28447;48.682;9.022;2023-05-19T07:27:26;8.87;;;5.23;;
42802;SDS011;28447;48.682;9.022;2023-05-19T07:29:51;14.13;;;5.80;;
42802;SDS011;28447;48.682;9.022;2023-05-19T07:32:18;9.17;;;5.87;;
42802;SDS011;28447;48.682;9.022;2023-05-19T07:34:44;9.57;;;5.27;;
42802;SDS011;28447;48.682;9.022;2023-05-19T07:37:09;9.83;;;5.77;;
42802;SDS011;28447;48.682;9.022;2023-05-19T07:39:35;8.70;;;5.30;;
42802;SDS011;28447;48.682;9.022;2023-05-19T07:42:01;12.57;;;6.00;;
42802;SDS011;28447;48.682;9.022;2023-05-19T07:44:27;8.57;;;5.70;;
42802;SDS011;28447;48.682;9.022;2023-05-19T07:46:55;8.97;;;5.43;;
42802;SDS011;28447;48.682;9.022;2023-05-19T07:49:21;8.83;;;6.47;;
42802;SDS011;28447;48.682;9.022;2023-05-19T07:51:46;8.90;;;5.50;;
42802;SDS011;28447;48.682;9.022;2023-05-19T07:54:12;11.60;;;6.00;;
42802;SDS011;28447;48.682;9.022;2023-05-19T07:56:38;7.87;;;5.00;;
42802;SDS011;28447;48.682;9.022;2023-05-19T07:59:03;8.37;;;5.50;;
42802;SDS011;28447;48.682;9.022;2023-05-19T08:01:29;9.77;;;5.57;;
42802;SDS011;28447;48.682;9.022;2023-05-19T08:03:56;9.60;;;6.03;;
42802;SDS011;28447;48.682;9.022;2023-05-19T08:06:22;13.17;;;5.73;;
42802;SDS011;28447;48.682;9.022;2023-05-19T08:08:49;7.00;;;5.10;;
42802;SDS011;28447;48.682;9.022;2023-05-19T08:11:15;9.40;;;5.43;;
42802;SDS011;28447;48.682;9.022;2023-05-19T08:13:40;9.70;;;5.33;;
42802;SDS011;28447;48.682;9.022;2023-05-19T08:16:06;10.80;;;5.20;;
42802;SDS011;28447;48.682;9.022;2023-05-19T08:18:32;6.37;;;4.97;;
42802;SDS011;28447;48.682;9.022;2023-05-19T08:20:57;8.73;;;5.23;;
42802;SDS011;28447;48.682;9.022;2023-05-19T08:23:23;10.50;;;5.57;;
42802;SDS011;28447;48.682;9.022;2023-05-19T08:25:49;6.03;;;4.97;;
42802;SDS011;28447;48.682;9.022;2023-05-19T08:28:15;7.17;;;5.10;;
42802;SDS011;28447;48.682;9.022;2023-05-19T08:30:40;10.80;;;5.53;;
42802;SDS011;28447;48.682;9.022;2023-05-19T08:33:06;14.47;;;6.57;;
42802;SDS011;28447;48.682;9.022;2023-05-19T08:35:32;11.10;;;5.20;;
42802;SDS011;28447;48.682;9.022;2023-05-19T08:37:58;8.40;;;5.10;;
42802;SDS011;28447;48.682;9.022;2023-05-19T08:40:24;7.53;;;4.73;;
42802;SDS011;28447;48.682;9.022;2023-05-19T08:42:51;8.00;;;5.07;;
42802;SDS011;28447;48.682;9.022;2023-05-19T08:45:18;6.70;;;4.60;;
42802;SDS011;28447;48.682;9.022;2023-05-19T08:47:44;9.87;;;4.70;;
42802;SDS011;28447;48.682;9.022;2023-05-19T08:50:15;7.80;;;5.27;;
42802;SDS011;28447;48.682;9.022;2023-05-19T08:52:50;7.50;;;5.90;;
42802;SDS011;28447;48.682;9.022;2023-05-19T08:57:57;9.10;;;4.97;;
42802;SDS011;28447;48.682;9.022;2023-05-19T09:00:25;8.77;;;4.80;;
42802;SDS011;28447;48.682;9.022;2023-05-19T09:02:50;8.00;;;4.60;;
42802;SDS011;28447;48.682;9.022;2023-05-19T09:05:17;8.57;;;4.40;;
42802;SDS011;28447;48.682;9.022;2023-05-19T09:07:43;9.63;;;4.77;;
42802;SDS011;28447;48.682;9.022;2023-05-19T09:10:10;8.73;;;4.90;;
42802;SDS011;28447;48.682;9.022;2023-05-19T09:12:39;5.93;;;4.10;;
42802;SDS011;28447;48.682;9.022;2023-05-19T09:15:06;9.20;;;4.90;;
42802;SDS011;28447;48.682;9.022;2023-05-19T09:17:33;6.30;;;4.70;;
42802;SDS011;28447;48.682;9.022;2023-05-19T09:20:01;11.90;;;4.57;;
42802;SDS011;28447;48.682;9.022;2023-05-19T09:22:28;7.27;;;4.60;;
42802;SDS011;28447;48.682;9.022;2023-05-19T09:24:54;8.20;;;4.70;;
42802;SDS011;28447;48.682;9.022;2023-05-19T09:27:21;8.30;;;4.83;;
42802;SDS011;28447;48.682;9.022;2023-05-19T09:29:49;9.00;;;4.90;;
42802;SDS011;28447;48.682;9.022;2023-05-19T09:32:24;5.83;;;4.60;;
42802;SDS011;28447;48.682;9.022;2023-05-19T09:34:52;11.40;;;4.90;;
42802;SDS011;28447;48.682;9.022;2023-05-19T09:37:22;13.90;;;5.50;;
42802;SDS011;28447;48.682;9.022;2023-05-19T09:39:48;8.13;;;4.40;;
42802;SDS011;28447;48.682;9.022;2023-05-19T09:42:22;7.37;;;4.90;;
42802;SDS011;28447;48.682;9.022;2023-05-19T09:44:57;11.43;;;4.90;;
42802;SDS011;28447;48.682;9.022;2023-05-19T09:47:27;5.83;;;4.60;;
42802;SDS011;28447;48.682;9.022;2023-05-19T09:49:57;7.57;;;4.47;;
42802;SDS011;28447;48.682;9.022;2023-05-19T09:52:23;5.30;;;4.80;;
42802;SDS011;28447;48.682;9.022;2023-05-19T09:54:49;13.80;;;5.03;;
42802;SDS011;28447;48.682;9.022;2023-05-19T09:57:16;6.70;;;4.80;;
42802;SDS011;28447;48.682;9.022;2023-05-19T09:59:41;6.93;;;4.70;;
42802;SDS011;28447;48.682;9.022;2023-05-19T10:02:14;9.50;;;4.87;;
42802;SDS011;28447;48.682;9.022;2023-05-19T10:04:45;7.80;;;4.83;;
42802;SDS011;28447;48.682;9.022;2023-05-19T10:07:12;10.77;;;4.50;;
42802;SDS011;28447;48.682;9.022;2023-05-19T10:09:39;10.53;;;5.10;;
42802;SDS011;28447;48.682;9.022;2023-05-19T10:12:06;12.73;;;5.83;;
42802;SDS011;28447;48.682;9.022;2023-05-19T10:14:34;8.87;;;4.93;;
42802;SDS011;28447;48.682;9.022;2023-05-19T10:17:00;6.63;;;4.87;;
42802;SDS011;28447;48.682;9.022;2023-05-19T10:19:26;7.27;;;5.33;;
42802;SDS011;28447;48.682;9.022;2023-05-19T10:21:52;8.13;;;4.47;;
42802;SDS011;28447;48.682;9.022;2023-05-19T10:24:19;6.33;;;5.00;;
42802;SDS011;28447;48.682;9.022;2023-05-19T10:29:27;12.27;;;5.63;;
42802;SDS011;28447;48.682;9.022;2023-05-19T10:31:55;8.97;;;4.87;;
42802;SDS011;28447;48.682;9.022;2023-05-19T10:34:53;7.43;;;5.13;;
42802;SDS011;28447;48.682;9.022;2023-05-19T10:40:17;7.53;;;4.77;;
42802;SDS011;28447;48.682;9.022;2023-05-19T10:45:53;6.13;;;4.97;;
42802;SDS011;28447;48.682;9.022;2023-05-19T10:48:21;9.03;;;4.60;;
42802;SDS011;28447;48.682;9.022;2023-05-19T10:50:47;8.07;;;4.70;;
42802;SDS011;28447;48.682;9.022;2023-05-19T10:53:14;6.67;;;4.43;;
42802;SDS011;28447;48.682;9.022;2023-05-19T10:58:11;9.53;;;5.40;;
42802;SDS011;28447;48.682;9.022;2023-05-19T11:00:38;7.53;;;5.17;;
42802;SDS011;28447;48.682;9.022;2023-05-19T11:03:15;11.90;;;4.90;;
42802;SDS011;28447;48.682;9.022;2023-05-19T11:05:47;7.13;;;4.10;;
42802;SDS011;28447;48.682;9.022;2023-05-19T11:08:16;5.27;;;4.07;;
42802;SDS011;28447;48.682;9.022;2023-05-19T11:11:20;9.20;;;5.27;;
42802;SDS011;28447;48.682;9.022;2023-05-19T11:13:54;6.30;;;4.47;;
42802;SDS011;28447;48.682;9.022;2023-05-19T11:16:33;6.33;;;4.50;;
42802;SDS011;28447;48.682;9.022;2023-05-19T11:18:58;8.67;;;4.73;;
42802;SDS011;28447;48.682;9.022;2023-05-19T11:24:36;5.77;;;4.70;;
42802;SDS011;28447;48.682;9.022;2023-05-19T11:27:18;10.77;;;4.60;;
42802;SDS011;28447;48.682;9.022;2023-05-19T11:29:45;6.43;;;4.73;;
42802;SDS011;28447;48.682;9.022;2023-05-19T11:32:15;6.97;;;4.47;;
42802;SDS011;28447;48.682;9.022;2023-05-19T11:34:43;6.37;;;4.70;;
42802;SDS011;28447;48.682;9.022;2023-05-19T11:37:09;10.73;;;4.87;;
42802;SDS011;28447;48.682;9.022;2023-05-19T11:39:35;9.63;;;4.90;;
42802;SDS011;28447;48.682;9.022;2023-05-19T11:42:01;5.50;;;4.47;;
42802;SDS011;28447;48.682;9.022;2023-05-19T11:44:27;10.87;;;4.47;;
42802;SDS011;28447;48.682;9.022;2023-05-19T11:46:52;12.80;;;4.80;;
42802;SDS011;28447;48.682;9.022;2023-05-19T11:49:18;10.33;;;5.67;;
42802;SDS011;28447;48.682;9.022;2023-05-19T11:51:44;8.43;;;4.60;;
42802;SDS011;28447;48.682;9.022;2023-05-19T11:54:10;6.33;;;4.83;;
42802;SDS011;28447;48.682;9.022;2023-05-19T11:56:40;9.77;;;4.80;;
42802;SDS011;28447;48.682;9.022;2023-05-19T11:59:07;6.50;;;4.80;;
42802;SDS011;28447;48.682;9.022;2023-05-19T12:01:33;8.63;;;4.83;;
42802;SDS011;28447;48.682;9.022;2023-05-19T12:03:59;10.40;;;5.50;;
42802;SDS011;28447;48.682;9.022;2023-05-19T12:06:25;5.67;;;4.63;;
42802;SDS011;28447;48.682;9.022;2023-05-19T12:08:55;8.00;;;4.53;;
42802;SDS011;28447;48.682;9.022;2023-05-19T12:11:22;5.87;;;4.70;;
42802;SDS011;28447;48.682;9.022;2023-05-19T12:13:48;9.73;;;5.00;;
42802;SDS011;28447;48.682;9.022;2023-05-19T12:16:21;8.03;;;5.10;;
42802;SDS011;28447;48.682;9.022;2023-05-19T12:18:47;6.93;;;4.70;;
42802;SDS011;28447;48.682;9.022;2023-05-19T12:21:12;10.30;;;5.20;;
42802;SDS011;28447;48.682;9.022;2023-05-19T12:23:38;6.80;;;5.07;;
42802;SDS011;28447;48.682;9.022;2023-05-19T12:26:05;15.93;;;5.30;;
42802;SDS011;28447;48.682;9.022;2023-05-19T12:28:32;7.73;;;5.20;;
42802;SDS011;28447;48.682;9.022;2023-05-19T12:30:58;6.93;;;5.30;;
42802;SDS011;28447;48.682;9.022;2023-05-19T12:33:23;10.03;;;5.30;;
42802;SDS011;28447;48.682;9.022;2023-05-19T12:35:50;9.93;;;5.60;;
42802;SDS011;28447;48.682;9.022;2023-05-19T12:38:15;10.20;;;5.20;;
42802;SDS011;28447;48.682;9.022;2023-05-19T12:40:43;11.77;;;5.53;;
42802;SDS011;28447;48.682;9.022;2023-05-19T12:43:19;8.93;;;5.60;;
42802;SDS011;28447;48.682;9.022;2023-05-19T12:45:46;8.17;;;5.67;;
42802;SDS011;28447;48.682;9.022;2023-05-19T12:48:12;9.47;;;5.30;;
42802;SDS011;28447;48.682;9.022;2023-05-19T12:50:40;6.93;;;4.90;;
42802;SDS011;28447;48.682;9.022;2023-05-19T12:53:07;6.77;;;5.10;;
42802;SDS011;28447;48.682;9.022;2023-05-19T12:55:38;9.50;;;5.47;;
42802;SDS011;28447;48.682;9.022;2023-05-19T12:58:08;10.10;;;5.63;;
42802;SDS011;28447;48.682;9.022;2023-05-19T13:00:38;8.27;;;5.47;;
42802;SDS011;28447;48.682;9.022;2023-05-19T13:03:06;8.17;;;5.30;;
42802;SDS011;28447;48.682;9.022;2023-05-19T13:05:39;9.60;;;5.33;;
42802;SDS011;28447;48.682;9.022;2023-05-19T13:08:18;6.60;;;5.03;;
42802;SDS011;28447;48.682;9.022;2023-05-19T13:10:45;9.00;;;5.10;;
42802;SDS011;28447;48.682;9.022;2023-05-19T13:13:12;8.40;;;5.70;;
42802;SDS011;28447;48.682;9.022;2023-05-19T13:15:41;6.77;;;5.30;;
42802;SDS011;28447;48.682;9.022;2023-05-19T13:18:11;8.47;;;5.37;;
42802;SDS011;28447;48.682;9.022;2023-05-19T13:20:37;8.13;;;5.97;;
42802;SDS011;28447;48.682;9.022;2023-05-19T13:23:04;7.03;;;5.50;;
42802;SDS011;28447;48.682;9.022;2023-05-19T13:25:33;11.57;;;5.90;;
42802;SDS011;28447;48.682;9.022;2023-05-19T13:27:59;11.00;;;6.10;;
42802;SDS011;28447;48.682;9.022;2023-05-19T13:30:29;9.93;;;6.27;;
42802;SDS011;28447;48.682;9.022;2023-05-19T13:32:55;12.07;;;5.40;;
42802;SDS011;28447;48.682;9.022;2023-05-19T13:35:21;8.80;;;5.80;;
42802;SDS011;28447;48.682;9.022;2023-05-19T13:37:47;16.73;;;5.80;;
42802;SDS011;28447;48.682;9.022;2023-05-19T13:40:13;11.70;;;6.30;;
42802;SDS011;28447;48.682;9.022;2023-05-19T13:42:39;7.27;;;5.73;;
42802;SDS011;28447;48.682;9.022;2023-05-19T13:45:05;10.73;;;5.50;;
42802;SDS011;28447;48.682;9.022;2023-05-19T13:47:32;7.40;;;6.00;;
42802;SDS011;28447;48.682;9.022;2023-05-19T13:49:57;18.13;;;6.63;;
42802;SDS011;28447;48.682;9.022;2023-05-19T13:52:23;8.83;;;5.13;;
42802;SDS011;28447;48.682;9.022;2023-05-19T13:54:50;10.70;;;6.13;;
42802;SDS011;28447;48.682;9.022;2023-05-19T13:57:18;9.60;;;5.10;;
42802;SDS011;28447;48.682;9.022;2023-05-19T13:59:44;10.23;;;6.13;;
42802;SDS011;28447;48.682;9.022;2023-05-19T14:02:09;8.13;;;5.87;;
42802;SDS011;28447;48.682;9.022;2023-05-19T14:04:35;7.50;;;5.23;;
42802;SDS011;28447;48.682;9.022;2023-05-19T14:07:05;8.87;;;5.23;;
42802;SDS011;28447;48.682;9.022;2023-05-19T14:09:31;9.90;;;6.20;;
42802;SDS011;28447;48.682;9.022;2023-05-19T14:11:57;7.23;;;5.87;;
42802;SDS011;28447;48.682;9.022;2023-05-19T14:14:23;13.10;;;6.20;;
42802;SDS011;28447;48.682;9.022;2023-05-19T14:16:49;10.17;;;5.20;;
42802;SDS011;28447;48.682;9.022;2023-05-19T14:19:15;9.93;;;5.63;;
42802;SDS011;28447;48.682;9.022;2023-05-19T14:21:40;8.10;;;5.73;;
42802;SDS011;28447;48.682;9.022;2023-05-19T14:24:06;7.57;;;5.27;;
42802;SDS011;28447;48.682;9.022;2023-05-19T14:26:32;8.87;;;5.50;;
42802;SDS011;28447;48.682;9.022;2023-05-19T14:28:57;11.47;;;5.80;;
42802;SDS011;28447;48.682;9.022;2023-05-19T14:31:23;9.67;;;5.93;;
42802;SDS011;28447;48.682;9.022;2023-05-19T14:33:49;12.10;;;6.17;;
42802;SDS011;28447;48.682;9.022;2023-05-19T14:36:15;12.13;;;5.30;;
42802;SDS011;28447;48.682;9.022;2023-05-19T14:38:41;11.20;;;5.90;;
42802;SDS011;28447;48.682;9.022;2023-05-19T14:41:06;10.00;;;5.50;;
42802;SDS011;28447;48.682;9.022;2023-05-19T14:43:32;11.00;;;6.03;;
42802;SDS011;28447;48.682;9.022;2023-05-19T14:45:58;8.13;;;5.60;;
42802;SDS011;28447;48.682;9.022;2023-05-19T14:48:23;9.90;;;5.80;;
42802;SDS011;28447;48.682;9.022;2023-05-19T14:50:49;9.80;;;5.20;;
42802;SDS011;28447;48.682;9.022;2023-05-19T14:53:15;9.73;;;5.80;;
42802;SDS011;28447;48.682;9.022;2023-05-19T14:55:40;9.17;;;4.87;;
42802;SDS011;28447;48.682;9.022;2023-05-19T14:58:07;6.87;;;5.30;;
42802;SDS011;28447;48.682;9.022;2023-05-19T15:00:32;7.60;;;5.00;;
42802;SDS011;28447;48.682;9.022;2023-05-19T15:02:58;11.43;;;5.87;;
42802;SDS011;28447;48.682;9.022;2023-05-19T15:05:24;8.70;;;5.80;;
42802;SDS011;28447;48.682;9.022;2023-05-19T15:07:49;10.10;;;5.77;;
42802;SDS011;28447;48.682;9.022;2023-05-19T15:10:18;6.23;;;5.63;;
42802;SDS011;28447;48.682;9.022;2023-05-19T15:12:46;11.17;;;5.90;;
42802;SDS011;28447;48.682;9.022;2023-05-19T15:15:12;9.93;;;6.03;;
42802;SDS011;28447;48.682;9.022;2023-05-19T15:17:39;6.93;;;4.87;;
42802;SDS011;28447;48.682;9.022;2023-05-19T15:20:06;8.03;;;5.77;;
42802;SDS011;28447;48.682;9.022;2023-05-19T15:22:32;9.20;;;5.60;;
42802;SDS011;28447;48.682;9.022;2023-05-19T15:24:58;9.53;;;6.10;;
42802;SDS011;28447;48.682;9.022;2023-05-19T15:27:24;8.60;;;5.93;;
42802;SDS011;28447;48.682;9.022;2023-05-19T15:29:50;7.23;;;5.50;;
42802;SDS011;28447;48.682;9.022;2023-05-19T15:32:16;10.20;;;5.03;;
42802;SDS011;28447;48.682;9.022;2023-05-19T15:34:42;11.53;;;5.53;;
42802;SDS011;28447;48.682;9.022;2023-05-19T15:37:07;11.33;;;5.97;;
42802;SDS011;28447;48.682;9.022;2023-05-19T15:39:33;9.80;;;6.10;;
42802;SDS011;28447;48.682;9.022;2023-05-19T15:41:59;8.00;;;5.23;;
42802;SDS011;28447;48.682;9.022;2023-05-19T15:44:24;7.03;;;5.47;;
42802;SDS011;28447;48.682;9.022;2023-05-19T15:46:50;10.33;;;5.80;;
42802;SDS011;28447;48.682;9.022;2023-05-19T15:49:16;11.60;;;5.90;;
42802;SDS011;28447;48.682;9.022;2023-05-19T15:51:44;10.33;;;6.30;;
42802;SDS011;28447;48.682;9.022;2023-05-19T15:54:10;9.33;;;5.90;;
42802;SDS011;28447;48.682;9.022;2023-05-19T15:56:35;11.60;;;6.30;;
42802;SDS011;28447;48.682;9.022;2023-05-19T15:59:01;8.27;;;5.27;;
42802;SDS011;28447;48.682;9.022;2023-05-19T16:01:27;11.03;;;5.50;;
42802;SDS011;28447;48.682;9.022;2023-05-19T16:03:53;13.03;;;6.70;;
42802;SDS011;28447;48.682;9.022;2023-05-19T16:06:19;9.03;;;5.20;;
42802;SDS011;28447;48.682;9.022;2023-05-19T16:08:45;8.20;;;5.53;;
42802;SDS011;28447;48.682;9.022;2023-05-19T16:11:10;7.70;;;6.80;;
42802;SDS011;28447;48.682;9.022;2023-05-19T16:13:36;7.90;;;5.80;;
42802;SDS011;28447;48.682;9.022;2023-05-19T16:16:02;10.00;;;5.90;;
42802;SDS011;28447;48.682;9.022;2023-05-19T16:18:27;11.93;;;6.80;;
42802;SDS011;28447;48.682;9.022;2023-05-19T16:20:53;9.33;;;5.70;;
42802;SDS011;28447;48.682;9.022;2023-05-19T16:23:19;7.07;;;5.40;;
42802;SDS011;28447;48.682;9.022;2023-05-19T16:25:45;7.37;;;5.70;;
42802;SDS011;28447;48.682;9.022;2023-05-19T16:28:11;10.60;;;6.17;;
42802;SDS011;28447;48.682;9.022;2023-05-19T16:30:38;7.67;;;5.63;;
42802;SDS011;28447;48.682;9.022;2023-05-19T16:33:04;8.93;;;5.80;;
42802;SDS011;28447;48.682;9.022;2023-05-19T16:35:31;9.13;;;6.10;;
42802;SDS011;28447;48.682;9.022;2023-05-19T16:37:56;7.47;;;5.00;;
42802;SDS011;28447;48.682;9.022;2023-05-19T16:40:22;7.80;;;5.00;;
42802;SDS011;28447;48.682;9.022;2023-05-19T16:42:48;11.23;;;6.00;;
42802;SDS011;28447;48.682;9.022;2023-05-19T16:45:13;10.97;;;5.50;;
42802;SDS011;28447;48.682;9.022;2023-05-19T16:47:41;7.10;;;5.50;;
42802;SDS011;28447;48.682;9.022;2023-05-19T16:50:07;11.93;;;5.80;;
42802;SDS011;28447;48.682;9.022;2023-05-19T16:52:33;9.80;;;5.07;;
42802;SDS011;28447;48.682;9.022;2023-05-19T16:54:59;8.03;;;5.70;;
42802;SDS011;28447;48.682;9.022;2023-05-19T16:57:24;9.33;;;6.00;;
42802;SDS011;28447;48.682;9.022;2023-05-19T16:59:50;7.17;;;5.93;;
42802;SDS011;28447;48.682;9.022;2023-05-19T17:02:16;7.23;;;5.30;;
42802;SDS011;28447;48.682;9.022;2023-05-19T17:04:41;8.43;;;5.17;;
42802;SDS011;28447;48.682;9.022;2023-05-19T17:07:07;8.67;;;5.30;;
42802;SDS011;28447;48.682;9.022;2023-05-19T17:09:35;8.00;;;6.20;;
42802;SDS011;28447;48.682;9.022;2023-05-19T17:12:01;8.57;;;5.47;;
42802;SDS011;28447;48.682;9.022;2023-05-19T17:14:27;8.73;;;5.80;;
42802;SDS011;28447;48.682;9.022;2023-05-19T17:16:53;7.73;;;5.40;;
42802;SDS011;28447;48.682;9.022;2023-05-19T17:19:18;6.60;;;5.30;;
42802;SDS011;28447;48.682;9.022;2023-05-19T17:21:44;9.80;;;5.87;;
42802;SDS011;28447;48.682;9.022;2023-05-19T17:24:10;6.37;;;4.70;;
42802;SDS011;28447;48.682;9.022;2023-05-19T17:26:35;7.23;;;4.80;;
42802;SDS011;28447;48.682;9.022;2023-05-19T17:29:01;10.13;;;5.90;;
42802;SDS011;28447;48.682;9.022;2023-05-19T17:31:27;8.60;;;5.73;;
42802;SDS011;28447;48.682;9.022;2023-05-19T17:33:52;11.17;;;7.20;;
42802;SDS011;28447;48.682;9.022;2023-05-19T17:36:18;6.90;;;6.20;;
42802;SDS011;28447;48.682;9.022;2023-05-19T17:38:44;8.93;;;5.90;;
42802;SDS011;28447;48.682;9.022;2023-05-19T17:41:10;13.07;;;8.30;;
42802;SDS011;28447;48.682;9.022;2023-05-19T17:43:38;6.30;;;5.40;;
42802;SDS011;28447;48.682;9.022;2023-05-19T17:46:05;8.93;;;5.90;;
42802;SDS011;28447;48.682;9.022;2023-05-19T17:48:31;8.40;;;5.30;;
42802;SDS011;28447;48.682;9.022;2023-05-19T17:50:57;7.93;;;5.73;;
42802;SDS011;28447;48.682;9.022;2023-05-19T17:53:24;9.30;;;5.53;;
42802;SDS011;28447;48.682;9.022;2023-05-19T17:55:51;5.83;;;5.00;;
42802;SDS011;28447;48.682;9.022;2023-05-19T17:58:19;10.57;;;5.30;;
42802;SDS011;28447;48.682;9.022;2023-05-19T18:00:45;10.00;;;5.10;;
42802;SDS011;28447;48.682;9.022;2023-05-19T18:03:11;8.13;;;5.33;;
42802;SDS011;28447;48.682;9.022;2023-05-19T18:05:37;7.90;;;4.70;;
42802;SDS011;28447;48.682;9.022;2023-05-19T18:08:06;11.30;;;5.33;;
42802;SDS011;28447;48.682;9.022;2023-05-19T18:10:36;9.87;;;5.17;;
42802;SDS011;28447;48.682;9.022;2023-05-19T18:13:03;10.20;;;5.30;;
42802;SDS011;28447;48.682;9.022;2023-05-19T18:15:30;7.17;;;5.20;;
42802;SDS011;28447;48.682;9.022;2023-05-19T18:17:55;10.63;;;5.60;;
42802;SDS011;28447;48.682;9.022;2023-05-19T18:20:21;8.03;;;5.33;;
42802;SDS011;28447;48.682;9.022;2023-05-19T18:22:47;8.53;;;6.20;;
42802;SDS011;28447;48.682;9.022;2023-05-19T18:25:12;9.57;;;5.57;;
42802;SDS011;28447;48.682;9.022;2023-05-19T18:27:38;7.27;;;5.40;;
42802;SDS011;28447;48.682;9.022;2023-05-19T18:30:04;8.20;;;5.77;;
42802;SDS011;28447;48.682;9.022;2023-05-19T18:32:32;8.70;;;6.20;;
42802;SDS011;28447;48.682;9.022;2023-05-19T18:34:57;16.87;;;10.47;;
42802;SDS011;28447;48.682;9.022;2023-05-19T18:37:23;21.60;;;14.50;;
42802;SDS011;28447;48.682;9.022;2023-05-19T18:39:49;25.93;;;18.03;;
42802;SDS011;28447;48.682;9.022;2023-05-19T18:42:14;36.80;;;24.60;;
42802;SDS011;28447;48.682;9.022;2023-05-19T18:44:41;31.87;;;24.77;;
42802;SDS011;28447;48.682;9.022;2023-05-19T18:47:10;33.90;;;24.80;;
42802;SDS011;28447;48.682;9.022;2023-05-19T18:49:36;34.77;;;23.80;;
42802;SDS011;28447;48.682;9.022;2023-05-19T18:52:02;29.83;;;18.07;;
42802;SDS011;28447;48.682;9.022;2023-05-19T18:54:28;19.03;;;10.07;;
42802;SDS011;28447;48.682;9.022;2023-05-19T18:56:54;11.40;;;9.10;;